Time;durP1;ratioP1;P1;durP2;ratioP2;P2;SDS_P1;SDS_P2;PMS_P1;PMS_P2;Temp;Humidity;BMP_temperature;BMP_pressure;BME280_temperature;BME280_humidity;BME280_pressure;Samples;Min_cycle;Max_cycle;Signal;HPM_P1;HPM_P2
2022/07/25 00:02:03;;;;;;;24.50;10.48;;;;;;;18.80;100.00;100472.77;1690952;84;21049;-83
2022/07/25 00:04:30;;;;;;;25.50;10.18;;;;;;;18.82;100.00;100470.53;1690919;84;21098;-84
2022/07/25 00:06:56;;;;;;;17.90;9.15;;;;;;;18.80;100.00;100467.87;1661318;86;21129;-82
2022/07/25 00:09:22;;;;;;;17.92;10.18;;;;;;;18.78;100.00;100470.10;1638805;87;21086;-82
2022/07/25 00:11:48;;;;;;;19.87;10.00;;;;;;;18.80;100.00;100467.87;1647435;84;21170;-83
2022/07/25 00:14:14;;;;;;;21.50;10.45;;;;;;;18.84;100.00;100466.09;1681915;85;21093;-83
2022/07/25 00:16:40;;;;;;;20.37;10.93;;;;;;;18.88;100.00;100470.36;1682110;85;21041;-84
2022/07/25 00:19:08;;;;;;;22.20;9.10;;;;;;;18.88;100.00;100470.36;1682202;85;21455;-83
2022/07/25 00:21:34;;;;;;;22.52;10.08;;;;;;;18.89;100.00;100473.34;1629603;87;21026;-81
2022/07/25 00:24:00;;;;;;;18.32;9.25;;;;;;;18.90;100.00;100466.19;1641473;85;22254;-84
2022/07/25 00:28:54;;;;;;;15.20;9.08;;;;;;;18.91;100.00;100471.88;1624246;88;21070;-83
2022/07/25 00:31:20;;;;;;;20.17;9.50;;;;;;;18.87;100.00;100462.73;1621548;87;21078;-81
2022/07/25 00:33:46;;;;;;;19.92;9.80;;;;;;;18.89;100.00;100469.25;1617275;88;21037;-83
2022/07/25 00:36:15;;;;;;;18.95;10.00;;;;;;;18.89;100.00;100465.16;1617346;88;22143;-81
2022/07/25 00:38:42;;;;;;;19.70;9.98;;;;;;;18.86;100.00;100459.77;1617064;87;21050;-83
2022/07/25 00:41:08;;;;;;;17.55;9.10;;;;;;;18.95;100.00;100466.61;1617001;88;21049;-82
2022/07/25 00:43:34;;;;;;;22.70;9.93;;;;;;;18.95;100.00;100469.34;1617234;88;21463;-84
2022/07/25 00:46:00;;;;;;;21.30;10.00;;;;;;;18.97;100.00;100469.80;1617444;88;21045;-83
2022/07/25 00:48:28;;;;;;;19.55;9.78;;;;;;;18.95;100.00;100470.14;1617217;88;21117;-82
2022/07/25 00:50:55;;;;;;;21.17;9.55;;;;;;;18.93;100.00;100472.94;1617660;87;21041;-84
2022/07/25 00:53:23;;;;;;;17.32;9.83;;;;;;;18.92;100.00;100465.31;1623760;87;22323;-81
2022/07/25 00:55:49;;;;;;;18.82;9.68;;;;;;;18.91;100.00;100467.78;1645834;87;22401;-89
2022/07/25 00:58:17;;;;;;;16.40;9.48;;;;;;;18.92;100.00;100462.59;1623969;88;21187;-82
2022/07/25 01:00:43;;;;;;;17.48;10.08;;;;;;;18.96;100.00;100463.55;1623659;88;22180;-82
2022/07/25 01:03:09;;;;;;;18.52;10.28;;;;;;;19.00;100.00;100463.16;1623875;88;21013;-83
2022/07/25 01:05:39;;;;;;;21.77;9.28;;;;;;;19.05;100.00;100459.45;1623784;88;21132;-82
2022/07/25 01:08:06;;;;;;;19.12;9.35;;;;;;;19.09;100.00;100459.08;1623673;88;21069;-83
2022/07/25 01:10:33;;;;;;;21.62;9.08;;;;;;;19.12;100.00;100463.07;1646242;86;21659;-83
2022/07/25 01:12:59;;;;;;;20.30;9.30;;;;;;;19.12;100.00;100463.07;1623905;88;21180;-85
2022/07/25 01:15:26;;;;;;;20.82;9.65;;;;;;;19.16;100.00;100468.16;1624009;87;21537;-83
2022/07/25 01:17:57;;;;;;;16.32;9.33;;;;;;;19.19;100.00;100463.41;1629868;87;21445;-81
2022/07/25 01:20:27;;;;;;;15.65;9.48;;;;;;;19.17;100.00;100451.99;1625287;86;21129;-82
2022/07/25 01:22:53;;;;;;;33.38;10.48;;;;;;;19.19;100.00;100449.19;1625073;88;21081;-83
2022/07/25 01:25:20;;;;;;;16.70;9.20;;;;;;;19.16;100.00;100443.00;1591756;90;21725;-84
2022/07/25 01:27:49;;;;;;;20.77;8.88;;;;;;;19.17;100.00;100447.33;1591787;90;21084;-82
2022/07/25 01:30:16;;;;;;;21.40;9.20;;;;;;;19.19;100.00;100442.92;1580673;90;21098;-82
2022/07/25 01:32:44;;;;;;;15.38;9.28;;;;;;;19.22;100.00;100445.01;1655951;84;21067;-82
2022/07/25 01:35:11;;;;;;;21.45;9.43;;;;;;;19.24;100.00;100447.67;1720888;82;21170;-81
2022/07/25 01:37:38;;;;;;;17.80;9.20;;;;;;;19.27;100.00;100447.59;1721020;82;21895;-82
2022/07/25 01:40:06;;;;;;;19.05;9.38;;;;;;;19.29;100.00;100449.41;1720926;82;21086;-82
2022/07/25 01:42:32;;;;;;;21.45;10.40;;;;;;;19.27;100.00;100444.29;1720910;82;21048;-83
2022/07/25 01:44:59;;;;;;;15.32;9.60;;;;;;;19.25;100.00;100445.73;1720914;82;21067;-83
2022/07/25 01:47:26;;;;;;;17.67;9.45;;;;;;;19.26;100.00;100445.39;1721068;82;21835;-83
2022/07/25 01:49:52;;;;;;;14.85;8.70;;;;;;;19.29;100.00;100443.95;1720831;82;21745;-82
2022/07/25 01:52:18;;;;;;;16.95;9.38;;;;;;;19.33;100.00;100453.70;1725908;80;21168;-83
2022/07/25 01:54:44;;;;;;;17.92;9.80;;;;;;;19.36;100.00;100453.05;1690561;82;21122;-83
2022/07/25 01:57:10;;;;;;;18.50;8.78;;;;;;;19.37;100.00;100449.98;1690849;82;21129;-82
2022/07/25 01:59:39;;;;;;;15.53;8.23;;;;;;;19.38;100.00;100447.48;1690672;82;21033;-83
2022/07/25 02:02:06;;;;;;;15.65;8.63;;;;;;;19.41;100.00;100448.77;1690613;82;21180;-84
2022/07/25 02:04:33;;;;;;;16.73;8.58;;;;;;;19.43;100.00;100452.79;1690435;82;21569;-84
2022/07/25 02:07:00;;;;;;;19.48;9.80;;;;;;;19.48;100.00;100460.03;1690657;82;21050;-80
2022/07/25 02:09:26;;;;;;;19.85;9.83;;;;;;;19.52;100.00;100457.68;1690578;82;21011;-83
2022/07/25 02:11:53;;;;;;;15.68;9.33;;;;;;;19.56;100.00;100450.20;1686795;82;21112;-83
2022/07/25 02:14:19;;;;;;;14.55;9.20;;;;;;;19.57;100.00;100450.46;1690378;82;21030;-84
2022/07/25 02:16:45;;;;;;;15.80;9.63;;;;;;;19.60;100.00;100442.98;1690474;82;21620;-84
2022/07/25 02:19:11;;;;;;;13.85;8.75;;;;;;;19.64;100.00;100442.55;1690642;82;21132;-84
2022/07/25 02:21:37;;;;;;;15.95;9.10;;;;;;;19.69;100.00;100443.22;1667050;84;21039;-82
2022/07/25 02:24:04;;;;;;;17.92;9.05;;;;;;;19.74;100.00;100444.42;1719158;82;21113;-82
2022/07/25 02:26:30;;;;;;;15.58;9.10;;;;;;;19.74;100.00;100443.63;1771217;81;21683;-81
2022/07/25 02:28:56;;;;;;;16.62;9.38;;;;;;;19.80;100.00;100447.80;1771617;80;20943;-82
2022/07/25 02:31:22;;;;;;;16.32;9.20;;;;;;;19.82;100.00;100446.88;1771458;80;21050;-84
2022/07/25 02:33:48;;;;;;;16.02;9.40;;;;;;;19.86;100.00;100454.69;1771493;79;21095;-83
2022/07/25 02:36:14;;;;;;;20.85;8.85;;;;;;;19.88;100.00;100462.02;1771201;81;20999;-82
2022/07/25 02:38:40;;;;;;;17.40;8.73;;;;;;;19.90;100.00;100465.78;1771385;80;21088;-84
2022/07/25 02:41:07;;;;;;;18.70;9.23;;;;;;;19.92;100.00;100469.80;1771315;80;21079;-84
2022/07/25 02:43:33;;;;;;;17.65;9.45;;;;;;;19.92;100.00;100460.22;1771252;81;20992;-85
2022/07/25 02:45:59;;;;;;;20.00;8.88;;;;;;;19.96;100.00;100465.27;1771308;81;21012;-84
2022/07/25 02:48:26;;;;;;;16.10;9.78;;;;;;;20.03;100.00;100459.86;1771453;81;20999;-83
2022/07/25 02:50:52;;;;;;;14.63;9.00;;;;;;;20.07;100.00;100460.83;1771591;80;21088;-84
2022/07/25 02:53:18;;;;;;;16.70;9.08;;;;;;;20.07;100.00;100462.20;1762945;79;21062;-84
2022/07/25 02:55:44;;;;;;;16.70;9.40;;;;;;;20.08;100.00;100452.28;1760534;81;21040;-83
2022/07/25 02:58:10;;;;;;;12.88;9.23;;;;;;;20.13;100.00;100458.16;1760524;81;21064;-84
2022/07/25 03:00:37;;;;;;;15.38;8.83;;;;;;;20.17;100.00;100459.89;1760404;80;20973;-85
2022/07/25 03:03:02;;;;;;;16.02;8.78;;;;;;;20.23;100.00;100449.57;1760352;81;21979;-83
2022/07/25 03:05:28;;;;;;;19.37;9.93;;;;;;;20.28;100.00;100443.92;1760388;80;20870;-85
2022/07/25 03:07:55;;;;;;;21.80;9.53;;;;;;;20.35;100.00;100437.92;1760578;80;20896;-85
2022/07/25 03:10:21;;;;;;;19.92;9.33;;;;;;;20.42;100.00;100431.39;1760381;81;20999;-81
2022/07/25 03:12:47;;;;;;;15.13;9.30;;;;;;;20.50;100.00;100436.02;1760524;81;20988;-84
2022/07/25 03:15:14;;;;;;;14.83;9.03;;;;;;;20.58;100.00;100438.48;1760026;81;22042;-83
2022/07/25 03:17:40;;;;;;;19.85;9.38;;;;;;;20.61;100.00;100433.71;1760330;81;21033;-84
2022/07/25 03:20:08;;;;;;;18.02;10.25;;;;;;;20.66;100.00;100425.31;1760170;81;21588;-83
2022/07/25 03:22:37;;;;;;;19.70;9.95;;;;;;;20.70;100.00;100428.19;1760512;81;21019;-81
2022/07/25 03:25:04;;;;;;;22.30;9.73;;;;;;;20.78;100.00;100433.61;1738514;81;20976;-85
2022/07/25 03:27:30;;;;;;;18.75;10.50;;;;;;;20.82;100.00;100431.83;1760493;81;21067;-87
2022/07/25 03:29:57;;;;;;;19.17;9.68;;;;;;;20.89;100.00;100432.66;1760342;81;21035;-84
2022/07/25 03:32:23;;;;;;;15.95;10.25;;;;;;;20.98;100.00;100427.91;1760136;81;21052;-85
2022/07/25 03:34:49;;;;;;;19.82;11.12;;;;;;;21.07;100.00;100424.53;1760691;81;21016;-91
2022/07/25 03:37:15;;;;;;;25.20;11.68;;;;;;;21.17;100.00;100426.63;1760310;81;21017;-85
2022/07/25 03:39:42;;;;;;;18.67;10.60;;;;;;;21.24;100.00;100423.59;1760440;81;21053;-84
2022/07/25 03:42:08;;;;;;;21.70;10.35;;;;;;;21.31;100.00;100426.59;1760269;81;21551;-84
2022/07/25 03:44:36;;;;;;;18.65;10.45;;;;;;;21.35;100.00;100428.08;1760631;81;21055;-82
2022/07/25 03:47:02;;;;;;;20.37;11.20;;;;;;;21.44;100.00;100432.97;1759987;81;20933;-84
2022/07/25 03:49:28;;;;;;;26.50;11.55;;;;;;;21.51;100.00;100424.98;1760471;81;20988;-85
2022/07/25 03:51:54;;;;;;;31.10;11.60;;;;;;;21.53;100.00;100424.63;1760790;79;20977;-85
2022/07/25 03:54:20;;;;;;;19.65;11.50;;;;;;;21.52;100.00;100427.95;1770322;81;21063;-83
2022/07/25 03:56:49;;;;;;;21.68;11.68;;;;;;;21.55;100.00;100428.64;1770184;81;21514;-85
2022/07/25 03:59:19;;;;;;;19.45;10.75;;;;;;;21.61;100.00;100427.06;1770367;81;21015;-84
2022/07/25 04:01:48;;;;;;;21.75;10.90;;;;;;;21.67;100.00;100431.19;1770258;81;21086;-85
2022/07/25 04:04:15;;;;;;;18.55;11.35;;;;;;;21.78;100.00;100426.31;1770450;81;21192;-85
2022/07/25 04:06:41;;;;;;;18.77;10.90;;;;;;;21.93;100.00;100433.08;1770016;80;20976;-82
2022/07/25 04:09:09;;;;;;;17.27;11.15;;;;;;;22.07;100.00;100427.86;1770662;80;21039;-84
2022/07/25 04:11:37;;;;;;;18.35;10.23;;;;;;;22.17;100.00;100443.89;1770141;80;21052;-85
2022/07/25 04:14:03;;;;;;;21.10;11.18;;;;;;;22.28;100.00;100440.94;1770184;80;21531;-85
2022/07/25 04:16:30;;;;;;;20.37;11.12;;;;;;;22.43;100.00;100434.75;1770470;79;21264;-86
2022/07/25 04:18:57;;;;;;;19.57;10.32;;;;;;;22.57;100.00;100444.02;1770449;81;21536;-85
2022/07/25 04:21:24;;;;;;;20.35;11.08;;;;;;;22.67;100.00;100437.25;1771608;81;21005;-84
2022/07/25 04:23:52;;;;;;;22.27;10.32;;;;;;;22.78;100.00;100438.97;1774306;80;20944;-83
2022/07/25 04:26:18;;;;;;;18.73;10.18;;;;;;;22.87;100.00;100445.12;1712927;82;21070;-85
2022/07/25 04:28:44;;;;;;;19.25;10.25;;;;;;;22.92;100.00;100444.09;1734408;82;21481;-85
2022/07/25 04:31:11;;;;;;;22.93;10.25;;;;;;;23.00;100.00;100435.75;1734068;82;21024;-86
2022/07/25 04:33:38;;;;;;;21.62;10.53;;;;;;;23.08;100.00;100438.91;1733999;82;21016;-83
2022/07/25 04:36:05;;;;;;;23.73;10.53;;;;;;;23.12;100.00;100431.59;1734066;82;21118;-86
2022/07/25 04:38:32;;;;;;;20.90;10.05;;;;;;;23.19;100.00;100441.98;1733831;82;21194;-86
2022/07/25 04:40:58;;;;;;;22.17;10.70;;;;;;;23.27;100.00;100434.75;1734128;82;21091;-85
2022/07/25 04:43:24;;;;;;;18.52;10.18;;;;;;;23.32;100.00;100433.11;1734316;82;21119;-85
2022/07/25 04:45:51;;;;;;;17.92;9.98;;;;;;;23.33;100.00;100426.47;1734379;82;21004;-81
2022/07/25 04:48:17;;;;;;;21.23;10.98;;;;;;;23.38;100.00;100427.58;1709551;82;21576;-84
2022/07/25 04:50:44;;;;;;;18.67;10.18;;;;;;;23.47;100.00;100429.63;1734423;82;20948;-86
2022/07/25 04:53:10;;;;;;;17.32;9.83;;;;;;;23.55;100.00;100431.39;1724483;81;21358;-90
2022/07/25 04:55:37;;;;;;;21.00;10.45;;;;;;;23.63;100.00;100432.98;1766108;81;21052;-83
2022/07/25 04:58:08;;;;;;;23.40;10.40;;;;;;;23.71;100.00;100427.92;1765720;81;21036;-85
2022/07/25 05:00:34;;;;;;;30.15;11.03;;;;;;;23.79;100.00;100431.86;1765613;81;21032;-90
2022/07/25 05:03:02;;;;;;;18.35;10.43;;;;;;;23.86;100.00;100425.77;1766021;81;21258;-82
2022/07/25 05:05:28;;;;;;;24.95;9.98;;;;;;;23.92;100.00;100433.98;1765657;79;21300;-82
2022/07/25 05:07:58;;;;;;;26.30;11.20;;;;;;;24.00;100.00;100427.51;1765975;81;21711;-83
2022/07/25 05:10:30;;;;;;;21.85;10.82;;;;;;;24.16;100.00;100426.13;1765829;81;21028;-84
2022/07/25 05:12:56;;;;;;;20.88;10.40;;;;;;;24.25;100.00;100427.31;1765430;81;21425;-83
2022/07/25 05:15:23;;;;;;;21.07;10.43;;;;;;;24.31;100.00;100421.75;1765635;81;21546;-85
2022/07/25 05:17:50;;;;;;;22.27;10.68;;;;;;;24.44;100.00;100426.05;1765888;80;21873;-84
2022/07/25 05:20:16;;;;;;;21.23;10.98;;;;;;;24.48;100.00;100414.52;1765871;81;21008;-84
2022/07/25 05:22:42;;;;;;;26.97;9.80;;;;;;;24.52;100.00;100420.69;1769267;79;20933;-84
2022/07/25 05:25:12;;;;;;;20.90;11.08;;;;;;;24.50;100.00;100423.00;1804120;79;20934;-84
2022/07/25 05:27:40;;;;;;;19.73;10.38;;;;;;;24.53;100.00;100425.03;1803888;79;21506;-84
2022/07/25 05:30:10;;;;;;;31.68;12.33;;;;;;;24.56;100.00;100421.56;1717100;82;21469;-83
2022/07/25 05:32:37;;;;;;;21.35;10.48;;;;;;;24.54;100.00;100419.18;1716977;82;21137;-85
2022/07/25 05:35:06;;;;;;;21.45;10.03;;;;;;;24.57;100.00;100421.80;1717238;82;21119;-84
2022/07/25 05:37:35;;;;;;;20.35;10.55;;;;;;;24.54;100.00;100410.13;1717296;82;21096;-85
2022/07/25 05:40:01;;;;;;;19.32;10.88;;;;;;;24.45;100.00;100414.45;1717369;82;21032;-84
2022/07/25 05:42:28;;;;;;;22.75;11.43;;;;;;;24.36;100.00;100411.05;1717364;82;21773;-85
2022/07/25 05:44:54;;;;;;;18.52;11.57;;;;;;;24.34;100.00;100403.13;1692997;83;21059;-83
2022/07/25 05:47:20;;;;;;;22.02;11.55;;;;;;;24.30;100.00;100405.60;1717033;82;21057;-89
2022/07/25 05:49:46;;;;;;;22.77;12.82;;;;;;;24.22;100.00;100402.66;1717409;82;21036;-84
2022/07/25 05:52:12;;;;;;;22.73;11.30;;;;;;;24.17;100.00;100401.55;1717378;82;21051;-84
2022/07/25 05:54:38;;;;;;;20.65;11.70;;;;;;;24.14;100.00;100402.27;1709806;83;21123;-85
2022/07/25 05:57:04;;;;;;;22.73;12.13;;;;;;;24.16;100.00;100403.30;1709834;83;21641;-85
2022/07/25 05:59:30;;;;;;;27.00;12.18;;;;;;;24.17;100.00;100402.13;1709944;83;20893;-85
2022/07/25 06:01:56;;;;;;;25.02;12.15;;;;;;;24.19;100.00;100395.11;1709859;83;21063;-85
2022/07/25 06:04:23;;;;;;;21.95;12.13;;;;;;;24.21;100.00;100397.53;1709865;83;21058;-82
2022/07/25 06:06:52;;;;;;;24.23;12.30;;;;;;;24.25;100.00;100399.77;1725011;79;21296;-83
2022/07/25 06:09:22;;;;;;;24.65;11.85;;;;;;;24.28;100.00;100397.69;1803857;79;20961;-83
2022/07/25 06:11:49;;;;;;;22.07;11.78;;;;;;;24.36;100.00;100396.70;1804175;79;21070;-84
2022/07/25 06:14:16;;;;;;;25.55;12.03;;;;;;;24.52;100.00;100397.27;1804017;79;21232;-85
2022/07/25 06:16:42;;;;;;;23.85;12.13;;;;;;;24.58;100.00;100390.32;1804133;79;21536;-81
2022/07/25 06:19:08;;;;;;;19.82;11.45;;;;;;;24.68;100.00;100387.02;1804241;79;21469;-85
2022/07/25 06:21:35;;;;;;;20.92;11.20;;;;;;;24.76;100.00;100390.70;1804092;79;20988;-85
2022/07/25 06:24:02;;;;;;;23.90;12.10;;;;;;;24.82;100.00;100390.64;1803737;79;21062;-84
2022/07/25 06:26:28;;;;;;;21.52;11.55;;;;;;;24.86;100.00;100385.44;1804167;79;20984;-84
2022/07/25 06:28:54;;;;;;;22.52;12.28;;;;;;;24.92;100.00;100385.36;1803922;79;21164;-84
2022/07/25 06:31:21;;;;;;;22.10;12.47;;;;;;;25.01;100.00;100381.59;1799329;79;21115;-85
2022/07/25 06:33:47;;;;;;;23.18;12.43;;;;;;;25.09;100.00;100376.42;1804122;79;21018;-83
2022/07/25 06:36:13;;;;;;;27.93;11.83;;;;;;;25.21;100.00;100383.22;1804414;79;21486;-85
2022/07/25 06:38:39;;;;;;;19.15;11.30;;;;;;;25.35;100.00;100374.40;1803911;79;20985;-87
2022/07/25 06:41:05;;;;;;;19.35;10.90;;;;;;;25.50;100.00;100375.45;1804125;79;21026;-84
2022/07/25 06:43:32;;;;;;;19.70;12.33;;;;;;;25.54;100.00;100370.23;1803958;79;21059;-84
2022/07/25 06:45:58;;;;;;;26.45;12.37;;;;;;;25.64;100.00;100366.64;1804169;79;21110;-84
2022/07/25 06:48:24;;;;;;;21.97;11.53;;;;;;;25.71;100.00;100364.81;1804543;79;21030;-84
2022/07/25 06:50:50;;;;;;;23.42;11.35;;;;;;;25.82;100.00;100366.39;1804262;79;21500;-88
2022/07/25 06:53:17;;;;;;;18.23;11.73;;;;;;;25.90;100.00;100362.59;1808944;78;20920;-85
2022/07/25 06:55:44;;;;;;;20.40;11.70;;;;;;;25.97;100.00;100364.66;1820199;78;21073;-85
2022/07/25 06:58:10;;;;;;;17.25;11.10;;;;;;;26.13;100.00;100364.53;1819746;78;21436;-88
2022/07/25 07:00:36;;;;;;;26.82;12.15;;;;;;;26.28;100.00;100367.72;1820225;78;21034;-85
2022/07/25 07:03:03;;;;;;;22.80;11.20;;;;;;;26.29;100.00;100371.47;1820313;78;21188;-83
2022/07/25 07:05:33;;;;;;;20.32;11.83;;;;;;;26.25;100.00;100370.64;1820217;78;20984;-83
2022/07/25 07:08:03;;;;;;;19.80;11.85;;;;;;;26.29;100.00;100382.53;1813800;78;21143;-87
2022/07/25 07:10:30;;;;;;;18.82;12.35;;;;;;;26.32;100.00;100375.47;1803086;78;20995;-86
2022/07/25 07:13:12;;;;;;;25.48;12.18;;;;;;;26.35;100.00;100374.72;1812726;79;21060;-85
2022/07/25 07:15:48;;;;;;;25.40;11.88;;;;;;;26.32;100.00;100366.38;1814455;78;21036;-85
2022/07/25 07:18:18;;;;;;;22.00;12.07;;;;;;;26.27;100.00;100368.31;1814651;79;21489;-84
2022/07/25 07:20:46;;;;;;;22.40;12.23;;;;;;;26.25;100.00;100367.88;1814823;79;21626;-83
2022/07/25 07:23:12;;;;;;;21.80;12.10;;;;;;;26.23;100.00;100372.97;1814638;79;20977;-82
2022/07/25 07:25:38;;;;;;;17.12;11.80;;;;;;;26.25;100.00;100375.38;1815105;79;21004;-83
2022/07/25 07:28:06;;;;;;;21.45;12.18;;;;;;;26.26;100.00;100373.60;1815084;79;21046;-83
2022/07/25 07:30:32;;;;;;;24.92;12.37;;;;;;;26.24;100.00;100369.64;1815231;79;21008;-85
2022/07/25 07:32:58;;;;;;;17.98;11.43;;;;;;;26.27;100.00;100366.14;1815071;79;21032;-85
2022/07/25 07:35:24;;;;;;;21.52;11.57;;;;;;;26.36;100.00;100373.57;1815333;79;21008;-83
2022/07/25 07:37:51;;;;;;;18.23;11.65;;;;;;;26.36;100.00;100375.55;1815072;79;20924;-82
2022/07/25 07:40:18;;;;;;;18.60;12.28;;;;;;;26.39;100.00;100378.94;1815201;79;21040;-82
2022/07/25 07:42:47;;;;;;;20.90;12.68;;;;;;;26.29;100.00;100388.64;1815273;79;21429;-84
2022/07/25 07:45:18;;;;;;;22.93;12.73;;;;;;;26.18;100.00;100388.50;1788285;79;21157;-84
2022/07/25 07:47:47;;;;;;;23.52;13.08;;;;;;;26.05;100.00;100385.71;1746288;81;20985;-84
2022/07/25 07:50:17;;;;;;;20.40;12.28;;;;;;;25.94;100.00;100389.70;1746197;82;21016;-82
2022/07/25 07:52:44;;;;;;;22.35;12.85;;;;;;;25.83;100.00;100388.71;1746554;82;21090;-84
2022/07/25 07:57:58;;;;;;;25.32;14.00;;;;;;;25.74;100.00;100391.69;1746179;82;21063;-83
2022/07/25 08:00:26;;;;;;;25.77;14.38;;;;;;;25.64;100.00;100390.90;1746163;82;21003;-84
2022/07/25 08:02:54;;;;;;;27.42;14.53;;;;;;;25.51;100.00;100386.73;1746039;81;22245;-82
2022/07/25 08:05:27;;;;;;;25.35;15.00;;;;;;;25.38;100.00;100382.77;1746343;81;21631;-84
2022/07/25 08:07:54;;;;;;;29.82;15.00;;;;;;;25.35;100.00;100389.02;1743193;82;21051;-84
2022/07/25 08:10:23;;;;;;;30.37;14.80;;;;;;;25.32;100.00;100387.55;1746440;82;21595;-84
2022/07/25 08:12:50;;;;;;;24.77;14.80;;;;;;;25.27;100.00;100388.66;1746441;82;21052;-85
2022/07/25 08:15:18;;;;;;;28.70;15.28;;;;;;;25.24;100.00;100389.38;1746024;82;21063;-84
2022/07/25 08:17:46;;;;;;;27.65;14.90;;;;;;;25.26;100.00;100388.42;1715012;82;21110;-84
2022/07/25 08:20:13;;;;;;;26.00;15.50;;;;;;;25.30;100.00;100390.69;1746455;82;21058;-84
2022/07/25 08:22:46;;;;;;;26.40;15.63;;;;;;;25.18;100.00;100389.46;1746379;82;21230;-82
2022/07/25 08:25:15;;;;;;;;;;;;;;;25.17;100.00;100395.33;1719235;83;21014;-83
2022/07/25 08:27:41;;;;;;;22.90;14.35;;;;;;;25.10;100.00;100388.48;1716676;83;20157;-82
2022/07/25 08:30:09;;;;;;;26.15;14.75;;;;;;;25.18;100.00;100387.27;1716851;83;21604;-84
2022/07/25 08:32:56;;;;;;;20.88;13.68;;;;;;;25.27;100.00;100384.52;1716872;83;21125;-82
2022/07/25 08:35:26;;;;;;;25.97;14.68;;;;;;;25.46;100.00;100380.13;1716887;83;21090;-84
2022/07/25 08:37:52;;;;;;;22.37;14.30;;;;;;;25.74;100.00;100384.78;1716722;83;21053;-85
2022/07/25 08:40:20;;;;;;;24.45;15.25;;;;;;;26.00;100.00;100386.84;1716588;83;21073;-84
2022/07/25 08:42:47;;;;;;;23.00;14.75;;;;;;;26.20;100.00;100385.34;1717009;83;21081;-83
2022/07/25 08:45:18;;;;;;;22.67;14.98;;;;;;;26.24;100.00;100387.02;1743327;81;21033;-83
2022/07/25 08:47:48;;;;;;;26.02;15.03;;;;;;;26.25;100.00;100379.52;1716390;83;21930;-84
2022/07/25 08:50:18;;;;;;;28.10;15.25;;;;;;;26.33;100.00;100388.72;1692651;83;21136;-84
2022/07/25 08:52:47;;;;;;;28.77;15.70;;;;;;;26.38;100.00;100388.38;1716441;83;21054;-84
2022/07/25 08:55:20;;;;;;;29.63;15.68;;;;;;;26.41;100.00;100386.25;1722997;82;21172;-83
2022/07/25 08:57:52;;;;;;;22.82;14.85;;;;;;;26.53;100.00;100386.65;1724189;82;21097;-82
2022/07/25 09:00:22;;;;;;;22.82;14.53;;;;;;;26.59;100.00;100385.98;1723764;82;21092;-83
2022/07/25 09:02:54;;;;;;;22.22;13.85;;;;;;;26.65;100.00;100387.80;1655002;85;21048;-84
2022/07/25 09:05:22;;;;;;;22.20;14.73;;;;;;;26.70;100.00;100385.51;1654770;85;21123;-88
2022/07/25 09:07:51;;;;;;;26.05;14.95;;;;;;;26.67;100.00;100380.73;1654930;85;21004;-84
2022/07/25 09:10:24;;;;;;;23.80;14.83;;;;;;;26.75;100.00;100380.84;1654883;85;21148;-84
2022/07/25 09:13:00;;;;;;;24.80;14.25;;;;;;;26.82;100.00;100385.06;1652735;85;21579;-89
2022/07/25 09:15:36;;;;;;;23.45;14.78;;;;;;;26.72;100.00;100378.23;1654460;85;21163;-85
2022/07/25 09:18:06;;;;;;;22.98;13.50;;;;;;;26.73;100.00;100381.20;1654950;85;21146;-85
2022/07/25 09:20:43;;;;;;;18.48;13.18;;;;;;;26.72;100.00;100376.27;1654955;85;21064;-83
2022/07/25 09:23:13;;;;;;;18.42;12.37;;;;;;;26.76;100.00;100375.52;1688571;83;21605;-84
2022/07/25 09:25:39;;;;;;;20.95;13.00;;;;;;;26.83;100.00;100374.23;1690215;83;21980;-84
2022/07/25 09:28:15;;;;;;;16.93;11.18;;;;;;;26.96;100.00;100372.22;1690261;83;21020;-84
2022/07/25 09:30:56;;;;;;;20.10;11.08;;;;;;;27.20;100.00;100372.13;1627882;86;21074;-84
2022/07/25 09:33:25;;;;;;;17.00;10.58;;;;;;;27.59;100.00;100366.98;1628236;86;21595;-83
2022/07/25 09:35:53;;;;;;;13.85;9.05;;;;;;;28.06;100.00;100367.63;1628085;86;21055;-83
2022/07/25 09:38:20;;;;;;;15.40;8.98;;;;;;;28.40;100.00;100363.89;1628251;86;21076;-82
2022/07/25 09:41:01;;;;;;;15.38;9.05;;;;;;;28.70;100.00;100367.83;1627840;86;21604;-83
2022/07/25 09:43:41;;;;;;;11.22;8.48;;;;;;;29.05;100.00;100367.81;1628463;86;21024;-83
2022/07/25 09:46:10;;;;;;;16.45;8.93;;;;;;;29.33;100.00;100369.89;1636510;85;21097;-84
2022/07/25 09:48:39;;;;;;;15.05;10.70;;;;;;;29.52;100.00;100379.23;1636257;85;21065;-85
2022/07/25 09:51:06;;;;;;;17.25;9.78;;;;;;;29.61;100.00;100371.30;1635869;85;21340;-85
2022/07/25 09:53:33;;;;;;;15.05;9.80;;;;;;;29.72;100.00;100371.34;1635157;85;21096;-80
2022/07/25 09:56:01;;;;;;;15.55;9.35;;;;;;;29.83;100.00;100369.37;1624723;86;21137;-84
2022/07/25 09:58:29;;;;;;;12.00;9.55;;;;;;;29.89;100.00;100368.38;1624251;86;21090;-84
2022/07/25 10:01:05;;;;;;;15.90;9.60;;;;;;;30.00;100.00;100366.40;1646234;87;21039;-84
2022/07/25 10:03:50;;;;;;;14.43;10.08;;;;;;;30.06;100.00;100361.20;1643844;87;21107;-85
2022/07/25 10:06:48;;;;;;;18.77;11.10;;;;;;;30.18;100.00;100362.78;1646319;87;21050;-83
2022/07/25 10:09:15;;;;;;;16.15;10.98;;;;;;;30.50;99.52;100359.39;1579400;90;21098;-86
2022/07/25 10:12:04;;;;;;;15.08;10.10;;;;;;;30.67;96.70;100362.50;1579972;90;21086;-86
2022/07/25 10:14:32;;;;;;;13.95;9.38;;;;;;;30.76;96.33;100355.30;1579881;90;21126;-85
2022/07/25 10:16:59;;;;;;;13.95;9.33;;;;;;;31.31;97.31;100353.08;1579473;90;21574;-84
2022/07/25 10:19:43;;;;;;;15.03;9.93;;;;;;;31.74;93.50;100354.17;1576300;90;21066;-84
2022/07/25 10:22:12;;;;;;;17.17;10.10;;;;;;;32.09;91.02;100342.75;1627091;88;21609;-87
2022/07/25 10:24:43;;;;;;;14.40;9.68;;;;;;;32.45;85.10;100336.81;1583701;90;21080;-85
2022/07/25 10:27:13;;;;;;;13.78;9.23;;;;;;;32.66;82.79;100334.37;1581653;90;21034;-83
2022/07/25 10:29:41;;;;;;;30.05;10.48;;;;;;;32.66;76.64;100339.16;1583881;90;22017;-82
2022/07/25 10:32:11;;;;;;;20.80;10.38;;;;;;;32.38;82.75;100330.48;1583400;89;21241;-82
2022/07/25 10:34:39;;;;;;;22.32;9.33;;;;;;;31.99;100.00;100331.69;1532268;93;21090;-84
